createdAt,value
2017-02-28T00:00:08.534Z,51.78
2017-02-28T00:01:08.558Z,51.78
2017-02-28T00:02:08.570Z,51.88
2017-02-28T00:03:08.604Z,51.88
2017-02-28T00:04:08.603Z,51.78
2017-02-28T00:05:08.638Z,52.16
2017-02-28T00:06:08.642Z,52.16
2017-02-28T00:07:08.678Z,52.07
2017-02-28T00:08:08.674Z,52.36
2017-02-28T00:09:08.710Z,52.36
2017-02-28T00:10:08.706Z,52.55
2017-02-28T00:11:08.750Z,52.36
2017-02-28T00:12:08.740Z,52.55
2017-02-28T00:13:08.800Z,52.64
2017-02-28T00:14:08.773Z,52.92
2017-02-28T00:15:08.793Z,52.83
2017-02-28T00:16:08.806Z,53.31
2017-02-28T00:17:08.822Z,53.12
2017-02-28T00:18:08.857Z,52.55
2017-02-28T00:19:08.858Z,53.59
2017-02-28T00:20:08.874Z,52.73
2017-02-28T00:21:08.502Z,52.86
2017-02-28T00:22:08.909Z,53.31
2017-02-28T00:23:08.942Z,53.5
2017-02-28T00:24:08.946Z,53.43
2017-02-28T00:25:08.980Z,52.83
2017-02-28T00:26:08.601Z,52.83
2017-02-28T00:27:09.020Z,53.5
2017-02-28T00:28:09.014Z,53.88
2017-02-28T00:29:09.046Z,53.97
2017-02-28T00:30:09.046Z,53.91
2017-02-28T00:31:09.084Z,53.78
2017-02-28T00:32:09.082Z,53.62
2017-02-28T00:33:09.124Z,53.59
2017-02-28T00:34:09.128Z,54.19
2017-02-28T00:35:09.146Z,53.53
2017-02-28T00:36:09.161Z,53.43
2017-02-28T00:37:09.193Z,53.72
2017-02-28T00:38:09.186Z,54.19
2017-02-28T00:39:09.216Z,54.19
2017-02-28T00:40:09.216Z,54.19
2017-02-28T00:41:09.259Z,54.1
2017-02-28T00:42:09.250Z,54
2017-02-28T00:43:09.291Z,54.1
2017-02-28T00:44:09.292Z,54.19
2017-02-28T00:45:09.318Z,54.29
2017-02-28T00:46:09.318Z,54.77
2017-02-28T00:47:09.352Z,54.38
2017-02-28T00:48:09.355Z,54.45
2017-02-28T00:49:09.371Z,54.48
2017-02-28T00:50:09.001Z,54.96
2017-02-28T00:51:09.419Z,55.05
2017-02-28T00:52:09.420Z,54.96
2017-02-28T00:53:09.455Z,55.02
2017-02-28T00:54:09.452Z,54.93
2017-02-28T00:55:09.506Z,55.15
2017-02-28T00:56:09.093Z,55.62
2017-02-28T00:57:09.533Z,54.83
2017-02-28T00:58:09.526Z,54.67
2017-02-28T00:59:09.565Z,54.86
2017-02-28T01:00:09.173Z,54.86
2017-02-28T01:01:09.601Z,54.96
2017-02-28T01:02:09.589Z,55.24
2017-02-28T01:03:09.606Z,55.5
2017-02-28T01:04:09.625Z,55.24
2017-02-28T01:05:09.647Z,55.24
2017-02-28T01:06:09.658Z,55.34
2017-02-28T01:07:09.704Z,55.43
2017-02-28T01:08:09.300Z,55.05
2017-02-28T01:09:09.736Z,55.12
2017-02-28T01:10:09.725Z,55.62
2017-02-28T01:11:09.774Z,55.53
2017-02-28T01:12:09.765Z,55.62
2017-02-28T01:13:09.780Z,55.62
2017-02-28T01:14:09.796Z,55.24
2017-02-28T01:15:09.816Z,55.62
2017-02-28T01:16:09.835Z,55.72
2017-02-28T01:17:09.865Z,55.43
2017-02-28T01:18:09.866Z,55.69
2017-02-28T01:19:09.893Z,55.43
2017-02-28T01:20:09.903Z,55.43
2017-02-28T01:21:09.935Z,55.53
2017-02-28T01:22:09.546Z,55.72
2017-02-28T01:23:09.969Z,55.34
2017-02-28T01:24:09.970Z,55.62
2017-02-28T01:25:10.005Z,55.41
2017-02-28T01:26:09.999Z,55.43
2017-02-28T01:27:10.040Z,55.41
2017-02-28T01:28:10.041Z,55.41
2017-02-28T01:29:10.083Z,55.41
2017-02-28T01:30:10.071Z,56.01
2017-02-28T01:31:10.117Z,55.88
2017-02-28T01:32:10.106Z,55.72
2017-02-28T01:33:10.142Z,55.91
2017-02-28T01:34:10.145Z,55.72
2017-02-28T01:35:10.180Z,55.6
2017-02-28T01:36:10.175Z,55.6
2017-02-28T01:37:10.216Z,56.29
2017-02-28T01:38:10.204Z,56.01
2017-02-28T01:39:10.252Z,56.07
2017-02-28T01:40:10.243Z,55.79
2017-02-28T01:41:10.268Z,56.26
2017-02-28T01:42:10.291Z,55.79
2017-02-28T01:43:10.316Z,55.69
2017-02-28T01:44:10.309Z,56.01
2017-02-28T01:45:10.344Z,55.21
2017-02-28T01:46:10.346Z,55.31
2017-02-28T01:47:10.376Z,55.6
2017-02-28T01:48:10.383Z,55.88
2017-02-28T01:49:10.412Z,55.5
2017-02-28T01:50:10.019Z,55.98
2017-02-28T01:51:10.442Z,55.98
2017-02-28T01:52:10.448Z,55.98
2017-02-28T01:53:10.498Z,55.88
2017-02-28T01:54:10.491Z,55.88
2017-02-28T01:55:10.515Z,55.79
2017-02-28T01:56:10.515Z,55.98
2017-02-28T01:57:10.550Z,55.79
2017-02-28T01:58:10.550Z,55.88
2017-02-28T01:59:10.582Z,55.98
2017-02-28T02:00:10.204Z,55.79
2017-02-28T02:01:10.624Z,55.88
2017-02-28T02:02:10.628Z,56.74
2017-02-28T02:03:10.653Z,56.07
2017-02-28T02:04:10.652Z,56.93
2017-02-28T02:05:10.688Z,56.26
2017-02-28T02:06:10.685Z,56.26
2017-02-28T02:07:10.724Z,55.98
2017-02-28T02:08:10.738Z,56.36
2017-02-28T02:09:10.762Z,56.26
2017-02-28T02:10:10.752Z,56.26
2017-02-28T02:11:10.796Z,56.46
2017-02-28T02:12:10.789Z,56.36
2017-02-28T02:13:10.826Z,56.46
2017-02-28T02:14:10.822Z,56.26
2017-02-28T02:15:10.865Z,56.46
2017-02-28T02:16:10.855Z,56.17
2017-02-28T02:17:10.892Z,56.55
2017-02-28T02:18:10.896Z,56.46
2017-02-28T02:19:10.927Z,56.26
2017-02-28T02:20:10.923Z,56.55
2017-02-28T02:21:10.983Z,56.36
2017-02-28T02:22:10.955Z,56.65
2017-02-28T02:23:10.994Z,56.65
2017-02-28T02:24:10.988Z,56.84
2017-02-28T02:25:11.042Z,56.93
2017-02-28T02:26:11.034Z,57.31
2017-02-28T02:27:11.057Z,57.03
2017-02-28T02:28:11.066Z,56.74
2017-02-28T02:29:11.081Z,56.84
2017-02-28T02:30:11.125Z,57.03
2017-02-28T02:31:11.117Z,56.46
2017-02-28T02:32:11.128Z,56.55
2017-02-28T02:33:11.162Z,56.55
2017-02-28T02:34:11.168Z,56.84
2017-02-28T02:35:11.195Z,56.84
2017-02-28T02:36:11.193Z,56.84
2017-02-28T02:37:11.226Z,56.84
2017-02-28T02:38:11.231Z,56.46
2017-02-28T02:39:11.261Z,56.65
2017-02-28T02:40:11.264Z,56.93
2017-02-28T02:41:11.329Z,56.74
2017-02-28T02:42:11.300Z,57.12
2017-02-28T02:43:11.326Z,56.74
2017-02-28T02:44:11.333Z,57.03
2017-02-28T02:45:11.365Z,57.12
2017-02-28T02:46:11.366Z,57.03
2017-02-28T02:47:11.409Z,56.84
2017-02-28T02:48:11.397Z,57.22
2017-02-28T02:49:11.433Z,57.12
2017-02-28T02:50:11.434Z,57.22
2017-02-28T02:51:11.471Z,57.22
2017-02-28T02:52:11.467Z,57.12
2017-02-28T02:53:11.501Z,56.84
2017-02-28T02:54:11.498Z,57.03
2017-02-28T02:55:11.555Z,56.93
2017-02-28T02:56:11.537Z,56.84
2017-02-28T02:57:11.567Z,57.03
2017-02-28T02:58:11.568Z,57.12
2017-02-28T02:59:11.598Z,57.22
2017-02-28T03:00:11.619Z,57.22
2017-02-28T03:01:11.645Z,57.31
2017-02-28T03:02:11.635Z,57.12
2017-02-28T03:03:11.669Z,57.31
2017-02-28T03:04:11.673Z,57.22
2017-02-28T03:05:11.705Z,57.22
2017-02-28T03:06:11.707Z,57.22
2017-02-28T03:07:11.758Z,57.6
2017-02-28T03:08:11.736Z,57.31
2017-02-28T03:09:11.781Z,57.41
2017-02-28T03:10:11.773Z,57.7
2017-02-28T03:11:11.812Z,57.5
2017-02-28T03:12:11.821Z,57.7
2017-02-28T03:13:11.839Z,57.89
2017-02-28T03:14:11.835Z,57.7
2017-02-28T03:15:11.959Z,57.7
2017-02-28T03:16:11.960Z,57.6
2017-02-28T03:17:11.598Z,57.41
2017-02-28T03:18:12.202Z,57.7
2017-02-28T03:19:12.076Z,57.41
2017-02-28T03:20:12.075Z,57.79
2017-02-28T03:21:12.084Z,57.98
2017-02-28T03:22:12.093Z,57.89
2017-02-28T03:23:11.997Z,57.89
2017-02-28T03:24:12.006Z,58.17
2017-02-28T03:25:12.022Z,57.6
2017-02-28T03:26:12.039Z,58.07
2017-02-28T03:27:12.055Z,57.48
2017-02-28T03:28:12.073Z,57.48
2017-02-28T03:29:12.098Z,57.95
2017-02-28T03:30:12.115Z,57.98
2017-02-28T03:31:12.125Z,57.79
2017-02-28T03:32:12.143Z,58.07
2017-02-28T03:33:12.160Z,57.79
2017-02-28T03:34:12.173Z,57.6
2017-02-28T03:35:12.191Z,57.98
2017-02-28T03:36:12.207Z,57.98
2017-02-28T03:37:12.224Z,58.07
2017-02-28T03:38:12.248Z,57.98
2017-02-28T03:39:12.262Z,57.89
2017-02-28T03:40:12.281Z,58.17
2017-02-28T03:41:12.290Z,58.14
2017-02-28T03:42:12.310Z,57.98
2017-02-28T03:43:12.445Z,58.52
2017-02-28T03:44:11.957Z,58.65
2017-02-28T03:45:12.356Z,58.17
2017-02-28T03:46:12.386Z,58.62
2017-02-28T03:47:12.394Z,58.75
2017-02-28T03:48:12.409Z,58.52
2017-02-28T03:49:12.430Z,58.52
2017-02-28T03:50:12.443Z,58.43
2017-02-28T03:51:12.455Z,58.52
2017-02-28T03:52:12.474Z,58.36
2017-02-28T03:53:12.489Z,58.52
2017-02-28T03:54:12.518Z,59.19
2017-02-28T03:55:12.542Z,59
2017-02-28T03:56:12.541Z,59.19
2017-02-28T03:57:12.560Z,59.09
2017-02-28T03:58:12.576Z,59.48
2017-02-28T03:59:12.590Z,59.76
2017-02-28T04:00:12.607Z,60.33
2017-02-28T04:01:12.635Z,60.27
2017-02-28T04:02:12.650Z,60.72
2017-02-28T04:03:12.658Z,61
2017-02-28T04:04:12.679Z,60.62
2017-02-28T04:05:12.709Z,61.19
2017-02-28T04:06:12.711Z,61.1
2017-02-28T04:07:12.724Z,61.29
2017-02-28T04:08:12.740Z,60.72
2017-02-28T04:09:12.760Z,61
2017-02-28T04:10:12.778Z,60.81
2017-02-28T04:11:12.795Z,60.81
2017-02-28T04:12:12.415Z,60.72
2017-02-28T04:13:12.833Z,60.72
2017-02-28T04:14:12.861Z,60.91
2017-02-28T04:15:12.876Z,61.1
2017-02-28T04:16:13.099Z,60.72
2017-02-28T04:17:12.912Z,61.1
2017-02-28T04:18:12.910Z,60.72
2017-02-28T04:19:12.987Z,61
2017-02-28T04:20:12.954Z,61
2017-02-28T04:21:12.965Z,61.1
2017-02-28T04:22:12.692Z,61
2017-02-28T04:23:13.157Z,60.72
2017-02-28T04:24:13.009Z,60.81
2017-02-28T04:25:13.026Z,61.1
2017-02-28T04:26:13.041Z,61.19
2017-02-28T04:27:13.058Z,61.19
2017-02-28T04:28:13.075Z,61.19
2017-02-28T04:29:13.101Z,61.38
2017-02-28T04:30:13.110Z,60.78
2017-02-28T04:31:13.127Z,60.88
2017-02-28T04:32:13.141Z,61.16
2017-02-28T04:33:13.164Z,60.97
2017-02-28T04:34:13.185Z,60.88
2017-02-28T04:35:13.194Z,60.78
2017-02-28T04:36:13.207Z,61.35
2017-02-28T04:37:13.230Z,60.97
2017-02-28T04:38:13.241Z,61.16
2017-02-28T04:39:13.256Z,60.97
2017-02-28T04:40:13.296Z,61.07
2017-02-28T04:41:13.295Z,61.07
2017-02-28T04:42:13.313Z,61.54
2017-02-28T04:43:13.326Z,61.07
2017-02-28T04:44:13.336Z,61.54
2017-02-28T04:45:13.365Z,61.45
2017-02-28T04:46:13.375Z,61.16
2017-02-28T04:47:13.388Z,61.73
2017-02-28T04:48:13.403Z,61.45
2017-02-28T04:49:13.425Z,61.25
2017-02-28T04:50:13.447Z,61.73
2017-02-28T04:51:13.462Z,61.64
2017-02-28T04:52:13.469Z,61.45
2017-02-28T04:53:13.483Z,61.35
2017-02-28T04:54:13.573Z,61.45
2017-02-28T04:55:13.521Z,61.54
2017-02-28T04:56:13.540Z,61.64
2017-02-28T04:57:13.556Z,61.73
2017-02-28T04:58:13.637Z,61.54
2017-02-28T04:59:13.584Z,61.35
2017-02-28T05:00:13.606Z,61.64
2017-02-28T05:01:13.619Z,61.54
2017-02-28T05:02:13.630Z,61.45
2017-02-28T05:03:13.651Z,61.83
2017-02-28T05:04:13.668Z,61.64
2017-02-28T05:05:13.696Z,61.61
2017-02-28T05:06:13.702Z,61.42
2017-02-28T05:07:13.717Z,61.16
2017-02-28T05:08:13.731Z,61.07
2017-02-28T05:09:13.745Z,61.42
2017-02-28T05:10:13.778Z,61.32
2017-02-28T05:11:13.780Z,61.32
2017-02-28T05:12:13.796Z,61.42
2017-02-28T05:13:13.824Z,61.32
2017-02-28T05:14:13.834Z,61.42
2017-02-28T05:15:13.842Z,61.51
2017-02-28T05:16:13.862Z,61.42
2017-02-28T05:17:13.875Z,61.8
2017-02-28T05:18:13.891Z,61.51
2017-02-28T05:19:13.924Z,61.61
2017-02-28T05:20:13.933Z,61.32
2017-02-28T05:21:13.953Z,61.61
2017-02-28T05:22:13.973Z,61.7
2017-02-28T05:23:13.972Z,61.32
2017-02-28T05:24:13.990Z,61.32
2017-02-28T05:25:14.006Z,61.61
2017-02-28T05:26:14.018Z,61.22
2017-02-28T05:27:14.038Z,61.51
2017-02-28T05:28:14.056Z,61.7
2017-02-28T05:29:14.067Z,61.42
2017-02-28T05:30:14.084Z,61.22
2017-02-28T05:31:14.104Z,61.13
2017-02-28T05:32:14.118Z,61.13
2017-02-28T05:33:14.254Z,61.32
2017-02-28T05:34:14.147Z,61.13
2017-02-28T05:35:14.272Z,61.8
2017-02-28T05:36:14.179Z,61.13
2017-02-28T05:37:14.302Z,61.13
2017-02-28T05:38:14.224Z,61.32
2017-02-28T05:39:14.226Z,61.22
2017-02-28T05:40:14.254Z,61.13
2017-02-28T05:41:14.259Z,61.13
2017-02-28T05:42:14.285Z,61.04
2017-02-28T05:43:14.288Z,61.04
2017-02-28T05:44:14.422Z,60.75
2017-02-28T05:45:14.424Z,61.04
2017-02-28T05:46:14.423Z,60.85
2017-02-28T05:47:14.432Z,60.66
2017-02-28T05:48:14.440Z,61.04
2017-02-28T05:49:14.448Z,60.85
2017-02-28T05:50:14.456Z,60.94
2017-02-28T05:51:14.455Z,61.42
2017-02-28T05:52:14.036Z,61.22
2017-02-28T05:53:14.447Z,60.94
2017-02-28T05:54:14.076Z,61.13
2017-02-28T05:55:14.483Z,60.94
2017-02-28T05:56:14.497Z,60.75
2017-02-28T05:57:14.531Z,61.04
2017-02-28T05:58:14.637Z,60.85
2017-02-28T05:59:14.637Z,61.32
2017-02-28T06:00:14.570Z,61.32
2017-02-28T06:01:14.580Z,60.85
2017-02-28T06:02:14.594Z,61.32
2017-02-28T06:03:14.610Z,61.13
2017-02-28T06:04:14.620Z,60.85
2017-02-28T06:05:14.823Z,60.75
2017-02-28T06:06:14.654Z,61.04
2017-02-28T06:07:14.674Z,60.94
2017-02-28T06:08:14.681Z,60.94
2017-02-28T06:09:14.708Z,61.13
2017-02-28T06:10:14.716Z,61.13
2017-02-28T06:11:14.842Z,61.22
2017-02-28T06:12:14.745Z,61.22
2017-02-28T06:13:14.372Z,61.13
2017-02-28T06:14:14.784Z,61.22
2017-02-28T06:15:14.809Z,61.13
2017-02-28T06:16:14.813Z,61.13
2017-02-28T06:17:14.935Z,61.04
2017-02-28T06:18:14.954Z,60.82
2017-02-28T06:19:14.857Z,61.13
2017-02-28T06:20:14.875Z,61.13
2017-02-28T06:21:14.885Z,61.29
2017-02-28T06:22:14.905Z,60.82
2017-02-28T06:23:14.927Z,60.66
2017-02-28T06:24:14.937Z,60.94
2017-02-28T06:25:14.951Z,60.75
2017-02-28T06:26:14.967Z,60.94
2017-02-28T06:27:14.992Z,60.85
2017-02-28T06:28:14.998Z,61.13
2017-02-28T06:29:15.120Z,61.13
2017-02-28T06:30:15.040Z,60.94
2017-02-28T06:31:15.074Z,60.66
2017-02-28T06:32:14.669Z,60.85
2017-02-28T06:33:15.083Z,61.04
2017-02-28T06:34:15.295Z,60.94
2017-02-28T06:35:15.103Z,61.13
2017-02-28T06:36:14.780Z,61.22
2017-02-28T06:37:15.139Z,61.04
2017-02-28T06:38:15.163Z,61.22
2017-02-28T06:39:15.169Z,60.85
2017-02-28T06:40:15.298Z,60.94
2017-02-28T06:41:15.199Z,60.94
2017-02-28T06:42:15.217Z,60.85
2017-02-28T06:43:15.228Z,60.75
2017-02-28T06:44:15.259Z,61.04
2017-02-28T06:45:15.279Z,60.94
2017-02-28T06:46:15.317Z,61.04
2017-02-28T06:47:15.337Z,61.13
2017-02-28T06:48:15.310Z,60.72
2017-02-28T06:49:15.340Z,60.94
2017-02-28T06:50:15.337Z,61.04
2017-02-28T06:51:15.361Z,60.75
2017-02-28T06:52:15.378Z,60.85
2017-02-28T06:53:15.389Z,61.04
2017-02-28T06:54:15.016Z,60.94
2017-02-28T06:55:15.414Z,61.32
2017-02-28T06:56:15.432Z,60.94
2017-02-28T06:57:15.445Z,60.85
2017-02-28T06:58:15.461Z,60.94
2017-02-28T06:59:15.504Z,61.32
2017-02-28T07:00:15.499Z,61.13
2017-02-28T07:01:15.526Z,61.04
2017-02-28T07:02:15.526Z,61.04
2017-02-28T07:03:15.539Z,61.04
2017-02-28T07:04:15.571Z,61.13
2017-02-28T07:05:15.286Z,60.75
2017-02-28T07:06:15.594Z,61.32
2017-02-28T07:07:15.610Z,60.75
2017-02-28T07:08:15.668Z,61.32
2017-02-28T07:09:15.636Z,61.22
2017-02-28T07:10:15.648Z,61.22
2017-02-28T07:11:15.662Z,61.13
2017-02-28T07:12:15.679Z,61
2017-02-28T07:13:15.697Z,61.22
2017-02-28T07:14:15.707Z,60.91
2017-02-28T07:15:15.328Z,61
2017-02-28T07:16:15.738Z,61.13
2017-02-28T07:17:15.760Z,61.32
2017-02-28T07:18:15.771Z,61.32
2017-02-28T07:19:15.792Z,61.22
2017-02-28T07:20:15.803Z,61.13
2017-02-28T07:21:15.817Z,61.1
2017-02-28T07:22:15.831Z,60.85
2017-02-28T07:23:15.844Z,60.94
2017-02-28T07:24:15.863Z,60.94
2017-02-28T07:25:15.879Z,61.29
2017-02-28T07:26:15.510Z,61.13
2017-02-28T07:27:15.912Z,60.82
2017-02-28T07:28:15.928Z,61.04
2017-02-28T07:29:15.938Z,60.85
2017-02-28T07:30:15.956Z,61.42
2017-02-28T07:31:15.973Z,61.22
2017-02-28T07:32:15.988Z,61.13
2017-02-28T07:33:16.005Z,61.13
2017-02-28T07:34:16.017Z,61.13
2017-02-28T07:35:16.031Z,61.19
2017-02-28T07:36:16.055Z,61.04
2017-02-28T07:37:16.066Z,61.22
2017-02-28T07:38:16.080Z,61.22
2017-02-28T07:39:16.231Z,60.66
2017-02-28T07:40:16.112Z,61.22
2017-02-28T07:41:16.128Z,60.85
2017-02-28T07:42:16.140Z,61.13
2017-02-28T07:43:16.157Z,61.04
2017-02-28T07:44:16.172Z,61.13
2017-02-28T07:45:16.185Z,60.94
2017-02-28T07:46:16.201Z,61.13
2017-02-28T07:47:16.217Z,61.13
2017-02-28T07:48:16.231Z,60.75
2017-02-28T07:49:16.252Z,60.85
2017-02-28T07:50:16.263Z,60.85
2017-02-28T07:51:16.277Z,61.22
2017-02-28T07:52:16.294Z,61.32
2017-02-28T07:53:16.307Z,61.13
2017-02-28T07:54:16.324Z,60.94
2017-02-28T07:55:15.942Z,61.04
2017-02-28T07:56:16.355Z,61.04
2017-02-28T07:57:16.373Z,61.04
2017-02-28T07:58:16.384Z,61.13
2017-02-28T07:59:16.403Z,60.94
2017-02-28T08:00:16.416Z,61.04
2017-02-28T08:01:16.433Z,61.04
2017-02-28T08:02:16.591Z,61.13
2017-02-28T08:03:16.575Z,61.13
2017-02-28T08:04:16.566Z,61.13
2017-02-28T08:05:16.493Z,60.85
2017-02-28T08:06:16.508Z,60.94
2017-02-28T08:07:16.527Z,61.13
2017-02-28T08:08:16.544Z,60.85
2017-02-28T08:09:16.558Z,60.85
2017-02-28T08:10:16.575Z,60.94
2017-02-28T08:11:16.692Z,60.85
2017-02-28T08:12:16.712Z,61.04
2017-02-28T08:13:17.028Z,60.75
2017-02-28T08:14:16.237Z,61.13
2017-02-28T08:15:16.252Z,61.04
2017-02-28T08:16:16.268Z,60.85
2017-02-28T08:17:16.289Z,60.85
2017-02-28T08:18:16.702Z,60.85
2017-02-28T08:19:16.711Z,61.13
2017-02-28T08:20:16.331Z,61.22
2017-02-28T08:21:16.344Z,60.94
2017-02-28T08:22:16.367Z,60.94
2017-02-28T08:23:16.789Z,60.66
2017-02-28T08:24:16.794Z,60.75
2017-02-28T08:25:16.801Z,60.46
2017-02-28T08:26:16.422Z,60.66
2017-02-28T08:27:16.851Z,60.75
2017-02-28T08:28:16.860Z,60.56
2017-02-28T08:29:16.917Z,60.75
2017-02-28T08:30:16.887Z,60.66
2017-02-28T08:31:17.006Z,60.66
2017-02-28T08:32:16.970Z,60.94
2017-02-28T08:33:17.012Z,60.75
2017-02-28T08:34:16.548Z,60.75
2017-02-28T08:35:16.956Z,61.13
2017-02-28T08:36:16.977Z,60.94
2017-02-28T08:37:17.075Z,61.13
2017-02-28T08:38:16.608Z,61.13
2017-02-28T08:39:17.019Z,61.13
2017-02-28T08:40:17.037Z,61.22
2017-02-28T08:41:16.660Z,61.22
2017-02-28T08:42:17.065Z,60.94
2017-02-28T08:43:17.082Z,61.04
2017-02-28T08:44:17.101Z,60.94
2017-02-28T08:45:17.115Z,61.22
2017-02-28T08:46:17.133Z,60.85
2017-02-28T08:47:17.153Z,61.13
2017-02-28T08:48:17.160Z,60.94
2017-02-28T08:49:17.173Z,61.04
2017-02-28T08:50:17.200Z,61.32
2017-02-28T08:51:17.210Z,60.97
2017-02-28T08:52:17.224Z,61.16
2017-02-28T08:53:17.248Z,60.85
2017-02-28T08:54:17.259Z,60.66
2017-02-28T08:55:17.351Z,60.94
2017-02-28T08:56:17.288Z,60.66
2017-02-28T08:57:17.012Z,61.16
2017-02-28T08:58:17.322Z,61.13
2017-02-28T08:59:17.412Z,60.46
2017-02-28T09:00:17.350Z,60.66
2017-02-28T09:01:17.370Z,60.85
2017-02-28T09:02:17.444Z,61.16
2017-02-28T09:03:17.395Z,61.04
2017-02-28T09:04:17.412Z,60.27
2017-02-28T09:05:17.543Z,60.69
2017-02-28T09:06:17.444Z,60.49
2017-02-28T09:07:17.458Z,60.59
2017-02-28T09:08:17.583Z,60.3
2017-02-28T09:09:17.491Z,60.46
2017-02-28T09:10:17.503Z,60.75
2017-02-28T09:11:17.519Z,60.4
2017-02-28T09:12:17.656Z,60.27
2017-02-28T09:13:17.554Z,60.46
2017-02-28T09:14:17.569Z,60.46
2017-02-28T09:15:17.595Z,60.66
2017-02-28T09:16:17.605Z,60.3
2017-02-28T09:17:17.617Z,60.78
2017-02-28T09:18:17.630Z,60.11
2017-02-28T09:19:17.650Z,60.59
2017-02-28T09:20:17.662Z,60.3
2017-02-28T09:21:17.676Z,60.49
2017-02-28T09:22:17.715Z,60.69
2017-02-28T09:23:17.711Z,60.21
2017-02-28T09:24:17.740Z,60.49
2017-02-28T09:25:17.753Z,60.02
2017-02-28T09:26:17.758Z,59.92
2017-02-28T09:27:17.775Z,60.3
2017-02-28T09:28:17.792Z,59.83
2017-02-28T09:29:17.806Z,59.74
2017-02-28T09:30:17.831Z,59.92
2017-02-28T09:31:17.843Z,59.74
2017-02-28T09:32:17.852Z,59.74
2017-02-28T09:33:17.882Z,59.54
2017-02-28T09:34:17.886Z,59.35
2017-02-28T09:35:17.899Z,59.54
2017-02-28T09:36:17.931Z,59.45
2017-02-28T09:37:17.957Z,59.06
2017-02-28T09:38:17.950Z,59.26
2017-02-28T09:39:17.965Z,59.26
2017-02-28T09:40:17.981Z,58.4
2017-02-28T09:41:17.998Z,58.69
2017-02-28T09:42:18.027Z,58.69
2017-02-28T09:43:18.032Z,58.3
2017-02-28T09:44:18.057Z,58.11
2017-02-28T09:45:18.063Z,57.73
2017-02-28T09:46:18.088Z,57.73
2017-02-28T09:47:18.094Z,57.73
2017-02-28T09:48:17.711Z,57.45
2017-02-28T09:49:18.235Z,57.73
2017-02-28T09:50:18.140Z,57.64
2017-02-28T09:51:17.761Z,58.02
2017-02-28T09:52:18.291Z,58.11
2017-02-28T09:53:18.224Z,57.82
2017-02-28T09:54:17.807Z,57.35
2017-02-28T09:55:18.232Z,57.54
2017-02-28T09:56:18.240Z,57.26
2017-02-28T09:57:18.258Z,57.26
2017-02-28T09:58:18.268Z,57.16
2017-02-28T09:59:18.338Z,57.26
2017-02-28T10:00:18.408Z,57.45
2017-02-28T10:01:18.420Z,57.26
2017-02-28T10:02:18.420Z,57.35
2017-02-28T10:03:18.564Z,56.97
2017-02-28T10:04:18.567Z,56.9
2017-02-28T10:05:18.575Z,56.97
2017-02-28T10:06:18.196Z,56.87
2017-02-28T10:07:18.522Z,56.87
2017-02-28T10:08:18.324Z,56.3
2017-02-28T10:09:18.610Z,57.16
2017-02-28T10:10:18.617Z,56.59
2017-02-28T10:11:18.620Z,56.11
2017-02-28T10:12:18.603Z,56.49
2017-02-28T10:13:18.846Z,56.78
2017-02-28T10:14:18.646Z,56.68
2017-02-28T10:15:18.659Z,56.49
2017-02-28T10:16:18.759Z,56.49
2017-02-28T10:17:18.582Z,56.87
2017-02-28T10:18:18.589Z,55.73
2017-02-28T10:19:18.609Z,56.3
2017-02-28T10:20:18.623Z,55.73
2017-02-28T10:21:18.644Z,56.21
2017-02-28T10:22:18.657Z,55.83
2017-02-28T10:23:18.678Z,55.73
2017-02-28T10:24:18.695Z,55.92
2017-02-28T10:25:18.699Z,55.35
2017-02-28T10:26:18.722Z,55.83
2017-02-28T10:27:18.735Z,55.54
2017-02-28T10:28:18.355Z,55.07
2017-02-28T10:29:18.776Z,54.68
2017-02-28T10:30:18.783Z,55.35
2017-02-28T10:31:18.811Z,54.88
2017-02-28T10:32:18.814Z,54.3
2017-02-28T10:33:18.834Z,54.59
2017-02-28T10:34:18.988Z,54.59
2017-02-28T10:35:18.872Z,54.11
2017-02-28T10:36:19.006Z,54.21
2017-02-28T10:37:19.007Z,54.02
2017-02-28T10:38:19.014Z,53.64
2017-02-28T10:39:19.024Z,53.54
2017-02-28T10:40:18.951Z,53.35
2017-02-28T10:41:18.974Z,53.92
2017-02-28T10:42:18.974Z,53.64
2017-02-28T10:43:18.988Z,53.06
2017-02-28T10:44:19.013Z,52.97
2017-02-28T10:45:19.024Z,52.87
2017-02-28T10:46:19.051Z,53.35
2017-02-28T10:47:19.057Z,52.33
2017-02-28T10:48:19.084Z,52.71
2017-02-28T10:49:19.096Z,52.49
2017-02-28T10:50:19.108Z,52.33
2017-02-28T10:51:18.729Z,52.71
2017-02-28T10:52:19.139Z,52.52
2017-02-28T10:53:19.152Z,52.71
2017-02-28T10:54:19.167Z,52.9
2017-02-28T10:55:19.184Z,52.42
2017-02-28T10:56:19.198Z,52.52
2017-02-28T10:57:19.221Z,51.95
2017-02-28T10:58:19.232Z,51.95
2017-02-28T10:59:19.248Z,51.76
2017-02-28T11:00:19.274Z,50.99
2017-02-28T11:01:19.304Z,51.28
2017-02-28T11:02:19.311Z,51.56
2017-02-28T11:03:19.310Z,51.21
2017-02-28T11:04:19.343Z,50.92
2017-02-28T11:05:19.346Z,50.54
2017-02-28T11:06:19.363Z,50.45
2017-02-28T11:07:19.376Z,50.35
2017-02-28T11:08:19.394Z,49.97
2017-02-28T11:09:19.411Z,50.54
2017-02-28T11:10:19.428Z,50.35
2017-02-28T11:11:19.450Z,50.26
2017-02-28T11:12:19.480Z,50.63
2017-02-28T11:13:19.478Z,50.26
2017-02-28T11:14:19.664Z,50.35
2017-02-28T11:15:19.706Z,50.07
2017-02-28T11:16:19.631Z,50.26
2017-02-28T11:17:19.639Z,50.38
2017-02-28T11:18:19.748Z,50.09
2017-02-28T11:19:19.302Z,49.23
2017-02-28T11:20:19.705Z,48.94
2017-02-28T11:21:19.698Z,49.04
2017-02-28T11:22:19.336Z,48.75
2017-02-28T11:23:19.736Z,48.57
2017-02-28T11:24:19.699Z,48.75
2017-02-28T11:25:19.728Z,48.66
2017-02-28T11:26:19.714Z,48.94
2017-02-28T11:27:19.774Z,48.85
2017-02-28T11:28:19.330Z,48.85
2017-02-28T11:29:19.749Z,48.08
2017-02-28T11:30:19.752Z,47.99
2017-02-28T11:31:19.778Z,48.75
2017-02-28T11:32:19.785Z,48.85
2017-02-28T11:33:19.812Z,48.28
2017-02-28T11:34:19.833Z,47.99
2017-02-28T11:35:19.837Z,48.08
2017-02-28T11:36:19.464Z,47.61
2017-02-28T11:37:19.878Z,47.89
2017-02-28T11:38:19.890Z,47.89
2017-02-28T11:39:19.913Z,47.71
2017-02-28T11:40:19.922Z,47.89
2017-02-28T11:41:19.937Z,48.18
2017-02-28T11:42:19.954Z,48.66
2017-02-28T11:43:20.068Z,48.37
2017-02-28T11:44:19.989Z,47.99
2017-02-28T11:45:20.004Z,48.37
2017-02-28T11:46:20.032Z,48.28
2017-02-28T11:47:20.147Z,47.89
2017-02-28T11:48:20.058Z,47.99
2017-02-28T11:49:19.688Z,48.08
2017-02-28T11:50:20.091Z,47.89
2017-02-28T11:51:20.125Z,48.18
2017-02-28T11:52:20.125Z,47.99
2017-02-28T11:53:20.138Z,48.28
2017-02-28T11:54:20.156Z,47.99
2017-02-28T11:55:20.282Z,48.94
2017-02-28T11:56:19.793Z,48.85
2017-02-28T11:57:20.311Z,48.57
2017-02-28T11:58:20.333Z,49.33
2017-02-28T11:59:20.240Z,48.66
2017-02-28T12:00:20.259Z,48.57
2017-02-28T12:01:20.273Z,48.75
2017-02-28T12:02:20.304Z,48.66
2017-02-28T12:03:20.309Z,48.75
2017-02-28T12:04:20.327Z,48.75
2017-02-28T12:05:20.343Z,49.04
2017-02-28T12:06:20.356Z,49.04
2017-02-28T12:07:20.380Z,48.57
2017-02-28T12:08:20.395Z,48.57
2017-02-28T12:09:20.409Z,48.66
2017-02-28T12:10:20.428Z,48.66
2017-02-28T12:11:20.451Z,48.85
2017-02-28T12:12:20.463Z,48.47
2017-02-28T12:13:20.479Z,48.57
2017-02-28T12:14:20.494Z,47.89
2017-02-28T12:15:20.513Z,48.18
2017-02-28T12:16:20.530Z,47.99
2017-02-28T12:17:20.544Z,48.37
2017-02-28T12:18:20.165Z,48.08
2017-02-28T12:19:20.186Z,47.61
2017-02-28T12:20:20.602Z,48.08
2017-02-28T12:21:20.612Z,48.28
2017-02-28T12:22:20.626Z,48.28
2017-02-28T12:23:20.649Z,48.08
2017-02-28T12:24:20.672Z,48.28
2017-02-28T12:25:20.687Z,48.66
2017-02-28T12:26:20.708Z,48.47
2017-02-28T12:27:20.715Z,48.57
2017-02-28T12:28:20.737Z,48.57
2017-02-28T12:29:20.747Z,49.23
2017-02-28T12:30:20.371Z,48.94
2017-02-28T12:31:20.794Z,49.23
2017-02-28T12:32:20.810Z,49.33
2017-02-28T12:33:20.816Z,49.33
2017-02-28T12:34:20.832Z,49.99
2017-02-28T12:35:20.849Z,49.52
2017-02-28T12:36:20.868Z,48.94
2017-02-28T12:37:20.895Z,48.94
2017-02-28T12:38:20.903Z,49.42
2017-02-28T12:39:20.932Z,49.13
2017-02-28T12:40:20.938Z,49.71
2017-02-28T12:41:20.956Z,49.23
2017-02-28T12:42:20.966Z,49.23
2017-02-28T12:43:20.998Z,48.94
2017-02-28T12:44:21.094Z,49.23
2017-02-28T12:45:21.034Z,48.85
2017-02-28T12:46:21.121Z,49.13
2017-02-28T12:47:21.129Z,48.85
2017-02-28T12:48:21.134Z,49.33
2017-02-28T12:49:21.202Z,48.57
2017-02-28T12:50:21.213Z,48.75
2017-02-28T12:51:21.204Z,49.04
2017-02-28T12:52:21.224Z,49.04
2017-02-28T12:53:21.244Z,48.85
2017-02-28T12:54:20.866Z,48.75